Wetterstation Vordersexau
Wetterdaten: Woche 05.03.18 - 11.03.18 (KW10)
Datum Zeit Temp. A. Feuchte A. Luftdruck Regen Wind Richtung Taupunkt Windchill Windben
05.03.2018 00:00 5,4 C 84 % 997,2 hPa 0,0 l/m 0,0 km/h NO 2,9 C 5,4 C 0,0 km/h
05.03.2018 01:00 4,6 C 84 % 997,2 hPa 0,0 l/m 0,0 km/h NO 2,1 C 4,6 C 0,0 km/h
05.03.2018 02:00 2,8 C 86 % 996,7 hPa 0,0 l/m 0,0 km/h O 0,7 C 2,8 C 0,0 km/h
05.03.2018 03:00 1,9 C 86 % 996,3 hPa 0,0 l/m 0,0 km/h O -0,2 C 1,9 C 0,0 km/h
05.03.2018 04:00 1,2 C 85 % 996,1 hPa 0,0 l/m 0,0 km/h NO -1,0 C 1,2 C 0,0 km/h
05.03.2018 05:00 1,0 C 84 % 995,7 hPa 0,0 l/m 0,0 km/h O-NO -1,4 C 1,0 C 0,0 km/h
05.03.2018 06:00 0,5 C 84 % 995,4 hPa 0,0 l/m 0,0 km/h SO -1,9 C 0,5 C 0,0 km/h
05.03.2018 07:00 0,7 C 82 % 994,9 hPa 0,0 l/m 0,0 km/h O-SO -2,0 C 0,7 C 0,0 km/h
05.03.2018 08:00 3,9 C 84 % 994,6 hPa 0,0 l/m 0,0 km/h N 1,4 C 3,9 C 0,0 km/h
05.03.2018 09:00 9,9 C 77 % 994,4 hPa 0,0 l/m 0,0 km/h SW 6,1 C 9,9 C 0,0 km/h
05.03.2018 10:00 12,5 C 67 % 993,7 hPa 0,0 l/m 0,0 km/h NW 6,5 C 12,5 C 0,0 km/h
05.03.2018 11:00 15,9 C 60 % 992,8 hPa 0,0 l/m 0,0 km/h W 8,1 C 15,9 C 0,0 km/h
05.03.2018 12:00 16,3 C 55 % 992,2 hPa 0,0 l/m 0,0 km/h W-NW 7,2 C 16,3 C 0,0 km/h
05.03.2018 13:00 16,4 C 55 % 990,9 hPa 0,0 l/m 0,0 km/h NW 7,3 C 16,4 C 0,0 km/h
05.03.2018 14:00 18,0 C 51 % 990,6 hPa 0,0 l/m 0,0 km/h W-NW 7,7 C 18,0 C 0,0 km/h
05.03.2018 15:00 17,7 C 49 % 989,9 hPa 0,0 l/m 0,0 km/h W 6,9 C 17,7 C 0,0 km/h
05.03.2018 16:00 17,4 C 50 % 989,5 hPa 0,0 l/m 0,0 km/h W-SW 6,9 C 17,4 C 0,0 km/h
05.03.2018 17:00 12,3 C 60 % 989,3 hPa 0,0 l/m 0,0 km/h W-NW 4,8 C 12,3 C 0,0 km/h
05.03.2018 18:00 7,2 C 73 % 989,3 hPa 0,0 l/m 0,0 km/h O-NO 2,7 C 7,2 C 0,0 km/h
05.03.2018 19:00 5,6 C 79 % 989,4 hPa 0,0 l/m 0,0 km/h O 2,3 C 5,6 C 0,0 km/h
05.03.2018 20:00 3,9 C 82 % 989,6 hPa 0,0 l/m 0,0 km/h NO 1,1 C 3,9 C 0,0 km/h
05.03.2018 21:00 3,1 C 84 % 989,7 hPa 0,0 l/m 0,0 km/h NO 0,7 C 3,1 C 0,0 km/h
05.03.2018 22:00 2,3 C 85 % 989,4 hPa 0,0 l/m 0,0 km/h NO 0,0 C 2,3 C 0,0 km/h
05.03.2018 23:00 2,2 C 85 % 989,4 hPa 0,0 l/m 0,0 km/h O-NO -0,1 C 2,2 C 0,0 km/h
06.03.2018 00:00 2,6 C 85 % 989,2 hPa 0,0 l/m 0,0 km/h NO 0,3 C 2,6 C 0,0 km/h
06.03.2018 01:00 1,5 C 85 % 989,5 hPa 0,0 l/m 0,0 km/h NO -0,7 C 1,5 C 0,0 km/h
06.03.2018 02:00 0,3 C 86 % 989,2 hPa 0,0 l/m 0,0 km/h O-NO -1,8 C 0,3 C 0,0 km/h
06.03.2018 03:00 0,8 C 86 % 988,7 hPa 0,0 l/m 0,0 km/h NO -1,3 C 0,8 C 0,0 km/h
06.03.2018 04:00 -0,1 C 86 % 989,1 hPa 0,0 l/m 0,0 km/h NO -2,2 C -0,1 C 0,0 km/h
06.03.2018 05:00 0,2 C 85 % 989,0 hPa 0,0 l/m 0,0 km/h O-SO -2,0 C 0,2 C 0,0 km/h
06.03.2018 06:00 -0,1 C 85 % 989,1 hPa 0,0 l/m 0,0 km/h N-NO -2,3 C -0,1 C 0,0 km/h
06.03.2018 07:00 0,7 C 85 % 989,2 hPa 0,0 l/m 0,0 km/h NO -1,5 C 0,7 C 0,0 km/h
06.03.2018 08:00 4,9 C 86 % 989,7 hPa 0,0 l/m 0,0 km/h W 2,8 C 4,9 C 0,0 km/h
06.03.2018 09:00 9,4 C 72 % 989,6 hPa 0,0 l/m 0,0 km/h SW 4,6 C 9,4 C 0,0 km/h
06.03.2018 10:00 11,4 C 66 % 989,6 hPa 0,0 l/m 0,0 km/h S-SW 5,3 C 11,4 C 0,0 km/h
06.03.2018 11:00 15,9 C 56 % 989,5 hPa 0,0 l/m 0,0 km/h W-SW 7,1 C 15,9 C 0,0 km/h
06.03.2018 12:00 15,4 C 58 % 989,4 hPa 0,0 l/m 1,3 km/h W-SW 7,2 C 15,4 C 0,7 km/h
06.03.2018 13:00 12,8 C 66 % 989,4 hPa 0,0 l/m 0,0 km/h W-SW 6,6 C 12,8 C 0,0 km/h
06.03.2018 14:00 12,8 C 66 % 989,3 hPa 0,0 l/m 17,5 km/h S-SW 6,6 C 7,7 C 9,7 km/h
06.03.2018 15:00 10,8 C 72 % 989,4 hPa 0,0 l/m 8,4 km/h W-SW 6,0 C 9,4 C 4,7 km/h
06.03.2018 16:00 9,8 C 77 % 989,6 hPa 0,0 l/m 0,0 km/h N 6,0 C 9,8 C 0,0 km/h
06.03.2018 17:00 8,1 C 81 % 990,5 hPa 0,0 l/m 0,0 km/h NO 5,0 C 8,1 C 0,0 km/h
06.03.2018 18:00 7,3 C 84 % 991,0 hPa 0,0 l/m 0,0 km/h NO 4,8 C 7,3 C 0,0 km/h
06.03.2018 19:00 7,2 C 85 % 991,4 hPa 0,0 l/m 0,0 km/h S-SO 4,9 C 7,2 C 0,0 km/h
06.03.2018 20:00 6,5 C 85 % 991,6 hPa 2,6 l/m 0,0 km/h S-SO 4,2 C 6,5 C 0,0 km/h
06.03.2018 21:00 5,9 C 85 % 991,6 hPa 0,0 l/m 0,0 km/h SO 3,6 C 5,9 C 0,0 km/h
06.03.2018 22:00 4,2 C 85 % 991,7 hPa 0,0 l/m 0,0 km/h SO 1,9 C 4,2 C 0,0 km/h
06.03.2018 23:00 3,5 C 85 % 992,3 hPa 0,0 l/m 0,0 km/h NO 1,2 C 3,5 C 0,0 km/h
07.03.2018 00:00 2,7 C 84 % 992,4 hPa 0,0 l/m 0,0 km/h NO 0,3 C 2,7 C 0,0 km/h
07.03.2018 01:00 2,3 C 84 % 992,2 hPa 0,0 l/m 0,0 km/h NO -0,1 C 2,3 C 0,0 km/h
07.03.2018 02:00 2,1 C 83 % 992,2 hPa 0,0 l/m 0,0 km/h NO -0,5 C 2,1 C 0,0 km/h
07.03.2018 03:00 2,3 C 81 % 992,5 hPa 0,0 l/m 0,0 km/h S-SW -0,6 C 2,3 C 0,0 km/h
07.03.2018 04:00 5,0 C 78 % 992,7 hPa 0,0 l/m 0,0 km/h SW 1,5 C 5,0 C 0,0 km/h
07.03.2018 05:00 6,2 C 83 % 993,6 hPa 0,0 l/m 32,4 km/h S-SW 3,5 C -5,3 C 18,0 km/h
07.03.2018 06:00 6,3 C 79 % 994,1 hPa 0,0 l/m 17,5 km/h SW 2,9 C -0,5 C 9,7 km/h
07.03.2018 07:00 6,3 C 78 % 994,8 hPa 0,0 l/m 25,9 km/h S 2,8 C -3,4 C 14,4 km/h
07.03.2018 08:00 6,9 C 72 % 995,5 hPa 0,0 l/m 24,6 km/h SW 2,2 C -2,2 C 13,7 km/h
07.03.2018 09:00 8,9 C 68 % 996,1 hPa 0,0 l/m 44,7 km/h SW 3,3 C -3,4 C 24,8 km/h
07.03.2018 10:00 8,2 C 69 % 996,7 hPa 0,0 l/m 24,6 km/h W-SW 2,9 C -0,5 C 13,7 km/h
07.03.2018 11:00 8,8 C 66 % 996,9 hPa 0,0 l/m 32,4 km/h W-SW 2,8 C -1,5 C 18,0 km/h
07.03.2018 12:00 8,8 C 67 % 997,3 hPa 0,0 l/m 38,9 km/h S-SW 3,0 C -2,7 C 21,6 km/h
07.03.2018 13:00 9,9 C 63 % 996,8 hPa 0,0 l/m 29,8 km/h S-SW 3,2 C 0,6 C 16,6 km/h
07.03.2018 14:00 12,4 C 56 % 997,1 hPa 0,0 l/m 33,0 km/h SW 3,9 C 3,5 C 18,4 km/h
07.03.2018 15:00 10,8 C 60 % 997,2 hPa 0,0 l/m 20,7 km/h S-SW 3,4 C 4,1 C 11,5 km/h
07.03.2018 16:00 8,8 C 67 % 997,9 hPa 0,0 l/m 25,9 km/h SW 3,0 C -0,0 C 14,4 km/h
07.03.2018 17:00 7,3 C 72 % 998,6 hPa 0,0 l/m 11,0 km/h S-SW 2,6 C 4,0 C 6,1 km/h
07.03.2018 18:00 5,4 C 83 % 999,9 hPa 0,5 l/m 24,6 km/h SW 2,7 C -4,3 C 13,7 km/h
07.03.2018 19:00 5,0 C 83 % 1000,8 hPa 0,0 l/m 6,5 km/h S-SW 2,4 C 4,9 C 3,6 km/h
07.03.2018 20:00 5,4 C 83 % 1001,2 hPa 0,0 l/m 24,0 km/h SW 2,7 C -4,1 C 13,3 km/h
07.03.2018 21:00 4,8 C 83 % 1001,9 hPa 0,0 l/m 22,7 km/h W-SW 2,2 C -4,4 C 12,6 km/h
07.03.2018 22:00 5,3 C 82 % 1002,7 hPa 0,0 l/m 21,4 km/h SW 2,5 C -3,3 C 11,9 km/h
07.03.2018 23:00 5,4 C 82 % 1003,1 hPa 0,0 l/m 24,6 km/h S-SW 2,6 C -4,3 C 13,7 km/h
08.03.2018 00:00 5,3 C 81 % 1003,8 hPa 0,0 l/m 21,4 km/h S-SW 2,3 C -3,3 C 11,9 km/h
08.03.2018 01:00 5,3 C 82 % 1004,2 hPa 0,0 l/m 22,0 km/h SW 2,5 C -3,5 C 12,2 km/h
08.03.2018 02:00 4,9 C 82 % 1004,5 hPa 0,0 l/m 42,1 km/h S-SW 2,1 C -9,0 C 23,4 km/h
08.03.2018 03:00 4,4 C 83 % 1004,7 hPa 0,0 l/m 21,4 km/h S 1,8 C -4,5 C 11,9 km/h
08.03.2018 04:00 4,9 C 82 % 1005,0 hPa 0,0 l/m 21,4 km/h S 2,1 C -3,8 C 11,9 km/h
08.03.2018 05:00 5,3 C 80 % 1004,8 hPa 0,0 l/m 2,6 km/h SW 2,1 C 5,3 C 1,4 km/h
08.03.2018 06:00 4,6 C 81 % 1005,3 hPa 0,0 l/m 0,0 km/h S 1,6 C 4,6 C 0,0 km/h
08.03.2018 07:00 5,4 C 79 % 1005,2 hPa 0,0 l/m 0,0 km/h S 2,1 C 5,4 C 0,0 km/h
08.03.2018 08:00 9,2 C 67 % 1005,3 hPa 0,0 l/m 25,3 km/h S-SW 3,4 C 0,7 C 14,0 km/h
08.03.2018 09:00 10,8 C 62 % 1005,1 hPa 0,0 l/m 16,8 km/h S-SW 3,8 C 5,4 C 9,4 km/h
08.03.2018 10:00 12,3 C 59 % 1005,2 hPa 0,0 l/m 20,1 km/h SW 4,5 C 6,2 C 11,2 km/h
08.03.2018 11:00 12,4 C 54 % 1004,8 hPa 0,0 l/m 43,4 km/h S 3,4 C 2,0 C 24,1 km/h
08.03.2018 12:00 13,4 C 51 % 1004,0 hPa 0,0 l/m 15,6 km/h S-SW 3,5 C 9,0 C 8,6 km/h
08.03.2018 13:00 14,2 C 48 % 1003,0 hPa 0,0 l/m 22,7 km/h W-SW 3,4 C 8,0 C 12,6 km/h
08.03.2018 14:00 14,6 C 46 % 1002,3 hPa 0,0 l/m 21,4 km/h S-SW 3,1 C 8,9 C 11,9 km/h
08.03.2018 15:00 14,4 C 44 % 1001,8 hPa 0,0 l/m 16,2 km/h W-SW 2,3 C 10,1 C 9,0 km/h
08.03.2018 16:00 12,8 C 47 % 1001,6 hPa 0,0 l/m 24,0 km/h W-SW 1,8 C 5,9 C 13,3 km/h
08.03.2018 17:00 12,1 C 46 % 1002,0 hPa 0,0 l/m 10,4 km/h S-SW 0,8 C 9,7 C 5,8 km/h
08.03.2018 18:00 10,8 C 49 % 1002,8 hPa 0,0 l/m 28,5 km/h SW 0,5 C 2,1 C 15,8 km/h
08.03.2018 19:00 9,6 C 52 % 1003,8 hPa 0,0 l/m 8,4 km/h SW 0,2 C 8,2 C 4,7 km/h
08.03.2018 20:00 9,2 C 54 % 1004,4 hPa 0,0 l/m 0,0 km/h S-SW 0,4 C 9,2 C 0,0 km/h
08.03.2018 21:00 10,1 C 53 % 1004,8 hPa 0,0 l/m 13,0 km/h SW 1,0 C 6,1 C 7,2 km/h
08.03.2018 22:00 10,2 C 54 % 1005,3 hPa 0,0 l/m 13,6 km/h S-SW 1,3 C 6,0 C 7,6 km/h
08.03.2018 23:00 9,6 C 57 % 1005,5 hPa 0,0 l/m 12,3 km/h SW 1,5 C 5,9 C 6,8 km/h
09.03.2018 00:00 9,7 C 58 % 1005,7 hPa 0,0 l/m 29,8 km/h S-SW 1,8 C 0,3 C 16,6 km/h
09.03.2018 01:00 9,4 C 59 % 1005,8 hPa 0,0 l/m 16,2 km/h S 1,8 C 3,9 C 9,0 km/h
09.03.2018 02:00 9,4 C 61 % 1006,0 hPa 0,0 l/m 5,2 km/h SW 2,3 C 9,4 C 2,9 km/h
09.03.2018 03:00 9,4 C 63 % 1006,1 hPa 0,0 l/m 25,9 km/h S-SW 2,7 C 0,8 C 14,4 km/h
09.03.2018 04:00 9,5 C 62 % 1006,6 hPa 0,0 l/m 27,9 km/h S 2,6 C 0,4 C 15,5 km/h
09.03.2018 05:00 9,3 C 62 % 1006,7 hPa 0,0 l/m 21,4 km/h S 2,4 C 1,9 C 11,9 km/h
09.03.2018 06:00 8,5 C 64 % 1007,2 hPa 0,0 l/m 0,0 km/h S 2,1 C 8,5 C 0,0 km/h
09.03.2018 07:00 9,0 C 64 % 1007,2 hPa 0,0 l/m 10,4 km/h S-SW 2,6 C 6,3 C 5,8 km/h
09.03.2018 08:00 10,5 C 60 % 1007,4 hPa 0,0 l/m 11,0 km/h SW 3,1 C 7,6 C 6,1 km/h
09.03.2018 09:00 11,6 C 56 % 1007,7 hPa 0,0 l/m 9,1 km/h S 3,1 C 9,9 C 5,0 km/h
09.03.2018 10:00 12,2 C 54 % 1007,6 hPa 0,0 l/m 13,0 km/h SW 3,2 C 8,6 C 7,2 km/h
09.03.2018 11:00 13,6 C 48 % 1007,2 hPa 0,0 l/m 19,4 km/h SW 2,8 C 8,1 C 10,8 km/h
09.03.2018 12:00 13,6 C 47 % 1006,9 hPa 0,0 l/m 20,7 km/h SW 2,5 C 7,7 C 11,5 km/h
09.03.2018 13:00 14,1 C 48 % 1006,4 hPa 0,0 l/m 27,2 km/h S 3,3 C 6,9 C 15,1 km/h
09.03.2018 14:00 15,9 C 44 % 1005,7 hPa 0,0 l/m 24,0 km/h S-SW 3,7 C 10,0 C 13,3 km/h
09.03.2018 15:00 15,9 C 46 % 1004,8 hPa 0,0 l/m 13,6 km/h S-SO 4,3 C 12,7 C 7,6 km/h
09.03.2018 16:00 15,0 C 49 % 1004,6 hPa 0,0 l/m 4,5 km/h S 4,4 C 15,0 C 2,5 km/h
09.03.2018 17:00 14,2 C 52 % 1004,3 hPa 0,0 l/m 0,0 km/h O-NO 4,5 C 14,2 C 0,0 km/h
09.03.2018 18:00 12,1 C 60 % 1004,5 hPa 0,0 l/m 0,0 km/h NO 4,6 C 12,1 C 0,0 km/h
09.03.2018 19:00 11,3 C 63 % 1004,5 hPa 0,0 l/m 0,0 km/h NO 4,5 C 11,3 C 0,0 km/h
09.03.2018 20:00 10,5 C 66 % 1004,6 hPa 0,0 l/m 0,0 km/h O-NO 4,4 C 10,5 C 0,0 km/h
09.03.2018 21:00 9,9 C 70 % 1004,6 hPa 0,0 l/m 0,0 km/h O-NO 4,7 C 9,9 C 0,0 km/h
09.03.2018 22:00 9,6 C 71 % 1004,8 hPa 0,0 l/m 0,0 km/h O-SO 4,6 C 9,6 C 0,0 km/h
09.03.2018 23:00 9,3 C 73 % 1004,4 hPa 0,0 l/m 0,0 km/h O-SO 4,7 C 9,3 C 0,0 km/h
10.03.2018 00:00 10,0 C 71 % 1004,1 hPa 0,0 l/m 0,0 km/h O-SO 5,0 C 10,0 C 0,0 km/h
10.03.2018 01:00 11,8 C 64 % 1004,1 hPa 0,0 l/m 0,0 km/h SO 5,2 C 11,8 C 0,0 km/h
10.03.2018 02:00 11,3 C 64 % 1003,8 hPa 0,0 l/m 0,0 km/h N-NO 4,7 C 11,3 C 0,0 km/h
10.03.2018 03:00 10,4 C 69 % 1003,4 hPa 0,0 l/m 0,0 km/h NO 5,0 C 10,4 C 0,0 km/h
10.03.2018 04:00 9,3 C 73 % 1003,0 hPa 0,0 l/m 0,0 km/h S-SO 4,7 C 9,3 C 0,0 km/h
10.03.2018 05:00 10,9 C 75 % 1003,0 hPa 0,0 l/m 1,9 km/h S-SO 6,6 C 10,9 C 1,1 km/h
10.03.2018 06:00 10,1 C 82 % 1003,3 hPa 0,0 l/m 0,0 km/h O-NO 7,2 C 10,1 C 0,0 km/h
10.03.2018 07:00 9,6 C 84 % 1003,0 hPa 0,5 l/m 0,0 km/h SO 7,0 C 9,6 C 0,0 km/h
10.03.2018 08:00 10,3 C 85 % 1003,3 hPa 0,0 l/m 0,0 km/h O-NO 7,9 C 10,3 C 0,0 km/h
10.03.2018 09:00 11,1 C 84 % 1003,3 hPa 1,0 l/m 0,0 km/h O 8,5 C 11,1 C 0,0 km/h
10.03.2018 10:00 12,4 C 84 % 1003,0 hPa 0,0 l/m 0,0 km/h S-SO 9,8 C 12,4 C 0,0 km/h
10.03.2018 11:00 14,9 C 77 % 1002,7 hPa 0,0 l/m 0,0 km/h S-SO 10,9 C 14,9 C 0,0 km/h
10.03.2018 12:00 13,9 C 73 % 1002,7 hPa 0,0 l/m 22,0 km/h S 9,1 C 7,8 C 12,2 km/h
10.03.2018 13:00 12,9 C 72 % 1002,4 hPa 0,0 l/m 21,4 km/h S 8,0 C 6,6 C 11,9 km/h
10.03.2018 14:00 13,8 C 70 % 1002,2 hPa 0,0 l/m 7,8 km/h W-SW 8,4 C 13,0 C 4,3 km/h
10.03.2018 15:00 14,3 C 71 % 1001,9 hPa 0,0 l/m 0,0 km/h SW 9,1 C 14,3 C 0,0 km/h
10.03.2018 16:00 14,8 C 70 % 1001,8 hPa 0,0 l/m 0,0 km/h O-SO 9,4 C 14,8 C 0,0 km/h
10.03.2018 17:00 14,1 C 74 % 1001,6 hPa 0,0 l/m 0,0 km/h NO 9,5 C 14,1 C 0,0 km/h
10.03.2018 18:00 11,4 C 80 % 1001,8 hPa 0,0 l/m 0,0 km/h NO 8,1 C 11,4 C 0,0 km/h
10.03.2018 19:00 10,8 C 83 % 1001,9 hPa 0,0 l/m 0,0 km/h O 8,0 C 10,8 C 0,0 km/h
10.03.2018 20:00 10,4 C 84 % 1001,7 hPa 0,0 l/m 0,0 km/h O 7,8 C 10,4 C 0,0 km/h
10.03.2018 21:00 10,2 C 84 % 1001,4 hPa 0,0 l/m 0,0 km/h O-NO 7,6 C 10,2 C 0,0 km/h
10.03.2018 22:00 10,1 C 85 % 1000,7 hPa 0,0 l/m 0,0 km/h O-SO 7,7 C 10,1 C 0,0 km/h
10.03.2018 23:00 9,9 C 84 % 1000,1 hPa 0,0 l/m 0,0 km/h SO 7,3 C 9,9 C 0,0 km/h
11.03.2018 00:00 8,9 C 84 % 999,7 hPa 0,0 l/m 0,0 km/h SO 6,3 C 8,9 C 0,0 km/h
11.03.2018 01:00 8,4 C 85 % 999,2 hPa 0,0 l/m 0,0 km/h O-NO 6,0 C 8,4 C 0,0 km/h
11.03.2018 02:00 7,3 C 85 % 998,5 hPa 0,0 l/m 0,0 km/h O-NO 4,9 C 7,3 C 0,0 km/h
11.03.2018 03:00 6,4 C 84 % 997,7 hPa 0,0 l/m 0,0 km/h N-NO 3,9 C 6,4 C 0,0 km/h
11.03.2018 04:00 6,6 C 83 % 996,3 hPa 0,0 l/m 0,0 km/h SO 3,9 C 6,6 C 0,0 km/h
11.03.2018 05:00 5,3 C 83 % 995,6 hPa 0,0 l/m 0,0 km/h N-NO 2,7 C 5,3 C 0,0 km/h
11.03.2018 06:00 6,1 C 81 % 995,2 hPa 0,0 l/m 0,0 km/h N-NO 3,1 C 6,1 C 0,0 km/h
11.03.2018 07:00 6,9 C 79 % 996,8 hPa 0,0 l/m 0,0 km/h NO 3,5 C 6,9 C 0,0 km/h
11.03.2018 08:00 9,1 C 80 % 996,9 hPa 0,0 l/m 0,0 km/h SO 5,8 C 9,1 C 0,0 km/h
11.03.2018 09:00 9,6 C 84 % 997,7 hPa 0,0 l/m 0,0 km/h O-SO 7,0 C 9,6 C 0,0 km/h
11.03.2018 10:00 12,8 C 85 % 995,5 hPa 0,5 l/m 0,0 km/h SW 10,3 C 12,8 C 0,0 km/h
11.03.2018 11:00 14,4 C 75 % 995,2 hPa 0,0 l/m 0,0 km/h SW 10,0 C 14,4 C 0,0 km/h
11.03.2018 12:00 16,6 C 68 % 994,7 hPa 0,0 l/m 0,0 km/h S-SO 10,7 C 16,6 C 0,0 km/h
11.03.2018 13:00 15,2 C 66 % 994,5 hPa 0,0 l/m 0,0 km/h S-SO 8,9 C 15,2 C 0,0 km/h
11.03.2018 14:00 14,2 C 71 % 994,6 hPa 0,0 l/m 0,0 km/h SW 9,0 C 14,2 C 0,0 km/h
11.03.2018 15:00 12,6 C 81 % 994,9 hPa 0,0 l/m 0,0 km/h N-NO 9,4 C 12,6 C 0,0 km/h
11.03.2018 16:00 11,5 C 83 % 994,3 hPa 0,5 l/m 0,0 km/h O-SO 8,7 C 11,5 C 0,0 km/h
11.03.2018 17:00 11,0 C 85 % 993,7 hPa 0,5 l/m 1,3 km/h N-NW 8,6 C 11,0 C 0,7 km/h
11.03.2018 18:00 10,9 C 83 % 992,7 hPa 0,0 l/m 0,0 km/h NO 8,1 C 10,9 C 0,0 km/h
11.03.2018 19:00 9,8 C 85 % 992,9 hPa 0,0 l/m 0,0 km/h NO 7,4 C 9,8 C 0,0 km/h
11.03.2018 20:00 8,9 C 85 % 992,7 hPa 0,0 l/m 0,0 km/h SO 6,5 C 8,9 C 0,0 km/h
11.03.2018 21:00 8,5 C 85 % 992,6 hPa 0,0 l/m 0,0 km/h O-SO 6,1 C 8,5 C 0,0 km/h
11.03.2018 22:00 7,8 C 85 % 993,3 hPa 0,0 l/m 0,0 km/h N 5,4 C 7,8 C 0,0 km/h
Min-Datum _ 06.03.18 08.03.18 06.03.18 - 05.03.18 - 06.03.18 08.03.18 05.03.18
_ Min-Zeit 04:53 15:53 03:53 - 00:53 - 06:53 02:53 00:53
Minimum _ -0,1 C 44 % 988,7 hPa - 0,0 km/h - -2,3 C -9,0 C 0,0 km/h
Max-Datum _ 05.03.18 05.03.18 09.03.18 06.03.18 07.03.18 - 10.03.18 05.03.18 07.03.18
_ Max-Zeit 14:53 02:53 09:53 20:53 09:53 - 11:53 14:53 09:53
Maximum _ 18,0 C 86 % 1007,7 hPa 2,6 l/m 44,7 km/h
SW
- 10,9 C 18,0 C 24,8 km/h
SW
Durchschnitt _ 9,0 C 72 % 998,2 hPa #6,2 l/m 7,6 km/h SW 4,0 C 6,6 C 4,2 km/h
www.sexauwetter.de